Time,TemperatureF,DewpointF,PressureIn,WindDirection,WindDirectionDegrees,WindSpeedMPH,WindSpeedGustMPH,Humidity,HourlyPrecipIn,Conditions,Clouds,dailyrainin,SoftwareType,DateUTC
2013-04-23 00:12:00,45.3,35.0,30.00,East,90,3.7,-999.0,67,-99.99,,,0.00,Acu-Link.com,2013-04-23 04:12:00,
2013-04-23 00:28:00,45.1,35.2,30.00,ESE,112,2.2,-999.0,68,-99.99,,,0.00,Acu-Link.com,2013-04-23 04:28:00,
2013-04-23 00:43:00,44.6,35.1,29.99,East,90,2.7,-999.0,69,-99.99,,,0.00,Acu-Link.com,2013-04-23 04:43:00,
2013-04-23 00:58:00,44.6,35.4,29.99,East,90,0.0,-999.0,70,-99.99,,,0.00,Acu-Link.com,2013-04-23 04:58:00,
2013-04-23 01:13:00,44.1,35.3,29.99,ESE,112,2.2,-999.0,71,-99.99,,,0.00,Acu-Link.com,2013-04-23 05:13:00,
2013-04-23 01:28:00,43.7,35.3,29.98,ESE,112,1.7,-999.0,72,-99.99,,,0.00,Acu-Link.com,2013-04-23 05:28:00,
2013-04-23 01:43:00,43.5,35.4,29.98,ESE,112,1.7,-999.0,73,-99.99,,,0.00,Acu-Link.com,2013-04-23 05:43:00,
2013-04-23 01:59:00,43.2,35.8,29.97,SE,135,0.0,-999.0,75,-99.99,,,0.00,Acu-Link.com,2013-04-23 05:59:00,
2013-04-23 02:14:00,42.8,35.8,29.97,ESE,112,0.0,-999.0,76,-99.99,,,0.00,Acu-Link.com,2013-04-23 06:14:00,
2013-04-23 02:29:00,42.4,35.7,29.97,East,90,0.0,-999.0,77,-99.99,,,0.00,Acu-Link.com,2013-04-23 06:29:00,
2013-04-23 02:44:00,42.3,35.9,29.96,ESE,112,0.0,-999.0,78,-99.99,,,0.00,Acu-Link.com,2013-04-23 06:44:00,
2013-04-23 03:00:00,42.1,36.1,29.96,ESE,112,0.0,-999.0,79,-99.99,,,0.00,Acu-Link.com,2013-04-23 07:00:00,
2013-04-23 03:15:00,41.5,36.1,29.95,ESE,112,0.0,-999.0,81,-99.99,,,0.00,Acu-Link.com,2013-04-23 07:15:00,
2013-04-23 03:30:00,41.0,35.3,29.95,ESE,112,0.0,-999.0,80,-99.99,,,0.00,Acu-Link.com,2013-04-23 07:30:00,
2013-04-23 03:46:00,40.5,35.8,29.95,ESE,112,0.0,-999.0,83,-99.99,,,0.00,Acu-Link.com,2013-04-23 07:46:00,
2013-04-23 04:01:00,40.5,36.4,29.95,ESE,112,0.0,-999.0,85,-99.99,,,0.00,Acu-Link.com,2013-04-23 08:01:00,
2013-04-23 04:16:00,40.5,36.4,29.94,ESE,112,0.0,-999.0,85,-99.99,,,0.00,Acu-Link.com,2013-04-23 08:16:00,
2013-04-23 04:31:00,40.5,36.1,29.93,ESE,112,0.0,-999.0,84,-99.99,,,0.00,Acu-Link.com,2013-04-23 08:31:00,
2013-04-23 04:47:00,41.2,35.8,29.93,SE,135,0.0,-999.0,81,-99.99,,,0.00,Acu-Link.com,2013-04-23 08:47:00,
2013-04-23 05:03:00,43.2,36.2,29.93,ESE,112,1.7,-999.0,76,-99.99,,,0.00,Acu-Link.com,2013-04-23 09:03:00,
2013-04-23 05:18:00,43.9,36.2,29.93,South,180,1.1,-999.0,74,-99.99,,,0.00,Acu-Link.com,2013-04-23 09:18:00,
2013-04-23 05:34:00,43.5,35.8,29.93,ESE,112,2.7,-999.0,74,-99.99,,,0.00,Acu-Link.com,2013-04-23 09:34:00,
2013-04-23 05:49:00,43.3,35.6,29.92,ESE,112,1.7,-999.0,74,-99.99,,,0.00,Acu-Link.com,2013-04-23 09:49:00,
2013-04-23 06:05:00,43.9,36.2,29.91,SE,135,3.7,-999.0,74,-99.99,,,0.00,Acu-Link.com,2013-04-23 10:05:00,
2013-04-23 06:21:00,44.4,36.6,29.91,SSE,157,2.2,-999.0,74,-99.99,,,0.00,Acu-Link.com,2013-04-23 10:21:00,
2013-04-23 06:36:00,44.8,36.7,29.90,ESE,112,1.7,-999.0,73,-99.99,,,0.00,Acu-Link.com,2013-04-23 10:36:00,
2013-04-23 06:52:00,45.0,36.9,29.90,SE,135,2.2,-999.0,73,-99.99,,,0.00,Acu-Link.com,2013-04-23 10:52:00,
2013-04-23 07:07:00,46.4,37.2,29.90,SE,135,1.1,-999.0,70,-99.99,,,0.00,Acu-Link.com,2013-04-23 11:07:00,
2013-04-23 07:23:00,48.0,37.6,29.91,SE,135,2.7,-999.0,67,-99.99,,,0.00,Acu-Link.com,2013-04-23 11:23:00,
2013-04-23 07:38:00,48.9,38.0,29.91,ESE,112,2.7,-999.0,66,-99.99,,,0.00,Acu-Link.com,2013-04-23 11:38:00,
2013-04-23 07:53:00,49.3,37.6,29.92,South,180,6.3,-999.0,64,-99.99,,,0.00,Acu-Link.com,2013-04-23 11:53:00,
2013-04-23 08:09:00,50.0,37.5,29.91,SSE,157,6.3,-999.0,62,-99.99,,,0.00,Acu-Link.com,2013-04-23 12:09:00,
2013-04-23 08:24:00,50.7,37.3,29.92,SSE,157,1.7,-999.0,60,-99.99,,,0.00,Acu-Link.com,2013-04-23 12:24:00,
2013-04-23 08:39:00,52.5,38.2,29.91,SSE,157,2.7,-999.0,58,-99.99,,,0.00,Acu-Link.com,2013-04-23 12:39:00,
2013-04-23 08:55:00,53.2,37.9,29.90,SSE,157,2.7,-999.0,56,-99.99,,,0.00,Acu-Link.com,2013-04-23 12:55:00,
2013-04-23 09:10:00,54.1,37.8,29.91,South,180,2.2,-999.0,54,-99.99,,,0.00,Acu-Link.com,2013-04-23 13:10:00,
2013-04-23 09:25:00,54.5,37.7,29.92,SSE,157,6.3,-999.0,53,-99.99,,,0.00,Acu-Link.com,2013-04-23 13:25:00,
2013-04-23 09:40:00,54.9,38.1,29.90,SSE,157,9.4,-999.0,53,-99.99,,,0.00,Acu-Link.com,2013-04-23 13:40:00,
2013-04-23 09:55:00,54.7,37.4,29.89,NE,45,3.7,-999.0,52,-99.99,,,0.00,Acu-Link.com,2013-04-23 13:55:00,
2013-04-23 10:10:00,55.8,37.9,29.89,SE,135,5.3,-999.0,51,-99.99,,,0.00,Acu-Link.com,2013-04-23 14:10:00,
2013-04-23 10:26:00,56.7,38.3,29.89,South,180,3.2,-999.0,50,-99.99,,,0.00,Acu-Link.com,2013-04-23 14:26:00,
2013-04-23 10:41:00,57.7,39.2,29.89,South,180,7.8,-999.0,50,-99.99,,,0.00,Acu-Link.com,2013-04-23 14:41:00,
2013-04-23 10:56:00,58.8,40.2,29.87,South,180,4.7,-999.0,50,-99.99,,,0.00,Acu-Link.com,2013-04-23 14:56:00,
2013-04-23 11:11:00,60.1,40.9,29.87,South,180,5.3,-999.0,49,-99.99,,,0.00,Acu-Link.com,2013-04-23 15:11:00,
2013-04-23 11:26:00,60.3,40.0,29.86,ESE,112,4.7,-999.0,47,-99.99,,,0.00,Acu-Link.com,2013-04-23 15:26:00,
2013-04-23 11:41:00,60.8,39.9,29.87,ESE,112,7.8,-999.0,46,-99.99,,,0.00,Acu-Link.com,2013-04-23 15:41:00,
2013-04-23 11:57:00,62.8,41.1,29.86,ESE,112,5.3,-999.0,45,-99.99,,,0.00,Acu-Link.com,2013-04-23 15:57:00,
2013-04-23 12:12:00,63.0,41.3,29.85,SSE,157,4.7,-999.0,45,-99.99,,,0.00,Acu-Link.com,2013-04-23 16:12:00,
2013-04-23 12:28:00,64.9,43.0,29.84,South,180,5.3,-999.0,45,-99.99,,,0.00,Acu-Link.com,2013-04-23 16:28:00,
2013-04-23 12:43:00,65.3,42.2,29.84,ESE,112,3.2,-999.0,43,-99.99,,,0.00,Acu-Link.com,2013-04-23 16:43:00,
2013-04-23 12:59:00,65.3,42.8,29.82,SE,135,2.7,-999.0,44,-99.99,,,0.00,Acu-Link.com,2013-04-23 16:59:00,
2013-04-23 13:14:00,66.4,42.6,29.81,SSE,157,6.3,-999.0,42,-99.99,,,0.00,Acu-Link.com,2013-04-23 17:14:00,
2013-04-23 13:29:00,67.5,43.6,29.80,ESE,112,3.2,-999.0,42,-99.99,,,0.00,Acu-Link.com,2013-04-23 17:29:00,
2013-04-23 13:44:00,66.9,43.1,29.79,SE,135,3.7,-999.0,42,-99.99,,,0.00,Acu-Link.com,2013-04-23 17:44:00,
2013-04-23 13:59:00,67.3,44.0,29.78,South,180,4.7,-999.0,43,-99.99,,,0.00,Acu-Link.com,2013-04-23 17:59:00,
2013-04-23 14:15:00,67.6,43.7,29.78,South,180,5.8,-999.0,42,-99.99,,,0.00,Acu-Link.com,2013-04-23 18:15:00,
2013-04-23 14:30:00,68.5,44.5,29.76,ESE,112,2.7,-999.0,42,-99.99,,,0.00,Acu-Link.com,2013-04-23 18:30:00,
2013-04-23 14:45:00,70.3,44.8,29.75,ESE,112,4.2,-999.0,40,-99.99,,,0.00,Acu-Link.com,2013-04-23 18:45:00,
2013-04-23 15:00:00,70.5,45.7,29.74,ESE,112,3.2,-999.0,41,-99.99,,,0.00,Acu-Link.com,2013-04-23 19:00:00,
2013-04-23 15:15:00,70.7,44.5,29.74,SSE,157,6.3,-999.0,39,-99.99,,,0.00,Acu-Link.com,2013-04-23 19:15:00,
2013-04-23 15:31:00,70.3,45.5,29.73,SSE,157,11.4,-999.0,41,-99.99,,,0.00,Acu-Link.com,2013-04-23 19:31:00,
2013-04-23 15:46:00,70.2,45.4,29.72,SE,135,5.8,-999.0,41,-99.99,,,0.00,Acu-Link.com,2013-04-23 19:46:00,
2013-04-23 16:01:00,70.2,46.0,29.72,SE,135,4.7,-999.0,42,-99.99,,,0.00,Acu-Link.com,2013-04-23 20:01:00,
2013-04-23 16:16:00,70.0,46.5,29.71,South,180,3.7,-999.0,43,-99.99,,,0.00,Acu-Link.com,2013-04-23 20:16:00,
2013-04-23 16:31:00,70.0,46.5,29.70,ESE,112,10.9,-999.0,43,-99.99,,,0.00,Acu-Link.com,2013-04-23 20:31:00,
2013-04-23 16:47:00,69.4,47.1,29.69,South,180,3.7,-999.0,45,-99.99,,,0.00,Acu-Link.com,2013-04-23 20:47:00,
2013-04-23 17:02:00,69.3,47.6,29.68,South,180,3.2,-999.0,46,-99.99,,,0.00,Acu-Link.com,2013-04-23 21:02:00,
2013-04-23 17:17:00,69.4,47.7,29.68,South,180,5.8,-999.0,46,-99.99,,,0.00,Acu-Link.com,2013-04-23 21:17:00,
2013-04-23 17:32:00,68.7,47.6,29.67,ESE,112,3.2,-999.0,47,-99.99,,,0.00,Acu-Link.com,2013-04-23 21:32:00,
2013-04-23 17:47:00,69.1,48.0,29.67,South,180,4.2,-999.0,47,-99.99,,,0.00,Acu-Link.com,2013-04-23 21:47:00,
2013-04-23 18:02:00,69.3,48.2,29.66,East,90,8.3,-999.0,47,-99.99,,,0.00,Acu-Link.com,2013-04-23 22:02:00,
2013-04-23 18:17:00,68.9,48.4,29.66,SE,135,7.3,-999.0,48,-99.99,,,0.00,Acu-Link.com,2013-04-23 22:17:00,
2013-04-23 18:32:00,68.5,48.6,29.66,South,180,7.3,-999.0,49,-99.99,,,0.00,Acu-Link.com,2013-04-23 22:32:00,
2013-04-23 18:48:00,66.7,51.0,29.69,South,180,14.5,-999.0,57,-99.99,,,0.00,Acu-Link.com,2013-04-23 22:48:00,
2013-04-23 19:03:00,59.9,54.1,29.69,SSE,157,5.3,-999.0,81,-99.99,,,0.01,Acu-Link.com,2013-04-23 23:03:00,
2013-04-23 19:18:00,59.2,54.4,29.70,SSE,157,2.7,-999.0,84,-99.99,,,0.03,Acu-Link.com,2013-04-23 23:18:00,
2013-04-23 19:34:00,58.1,54.6,29.70,WSW,247,5.8,-999.0,88,-99.99,,,0.05,Acu-Link.com,2013-04-23 23:34:00,
2013-04-23 19:49:00,57.7,55.1,29.70,ESE,112,2.7,-999.0,91,-99.99,,,0.07,Acu-Link.com,2013-04-23 23:49:00,
2013-04-23 20:04:00,57.4,55.1,29.69,East,90,3.7,-999.0,92,-99.99,,,0.08,Acu-Link.com,2013-04-24 00:04:00,
2013-04-23 20:20:00,57.0,54.7,29.68,WSW,247,2.2,-999.0,92,-99.99,,,0.09,Acu-Link.com,2013-04-24 00:20:00,
2013-04-23 20:35:00,57.0,55.0,29.68,WSW,247,2.7,-999.0,93,-99.99,,,0.09,Acu-Link.com,2013-04-24 00:35:00,
2013-04-23 20:50:00,56.8,54.8,29.68,SSE,157,2.2,-999.0,93,-99.99,,,0.09,Acu-Link.com,2013-04-24 00:50:00,
2013-04-23 21:06:00,56.7,55.0,29.68,South,180,3.7,-999.0,94,-99.99,,,0.09,Acu-Link.com,2013-04-24 01:06:00,
2013-04-23 21:21:00,56.5,55.1,29.68,SSE,157,2.2,-999.0,95,-99.99,,,0.10,Acu-Link.com,2013-04-24 01:21:00,
2013-04-23 21:36:00,56.5,55.1,29.68,South,180,2.2,-999.0,95,-99.99,,,0.12,Acu-Link.com,2013-04-24 01:36:00,
2013-04-23 21:51:00,56.3,54.9,29.68,SE,135,1.7,-999.0,95,-99.99,,,0.13,Acu-Link.com,2013-04-24 01:51:00,
2013-04-23 22:07:00,56.1,55.0,29.66,South,180,1.1,-999.0,96,-99.99,,,0.13,Acu-Link.com,2013-04-24 02:07:00,
2013-04-23 22:22:00,55.9,54.8,29.65,SE,135,1.7,-999.0,96,-99.99,,,0.13,Acu-Link.com,2013-04-24 02:22:00,
2013-04-23 22:38:00,55.9,55.1,29.64,ESE,112,0.0,-999.0,97,-99.99,,,0.13,Acu-Link.com,2013-04-24 02:38:00,
2013-04-23 22:53:00,55.6,54.8,29.65,SE,135,1.7,-999.0,97,-99.99,,,0.13,Acu-Link.com,2013-04-24 02:53:00,
2013-04-23 23:40:00,55.0,54.4,29.61,ESE,112,2.2,-999.0,98,-99.99,,,0.18,Acu-Link.com,2013-04-24 03:40:00,
2013-04-23 23:56:00,54.9,54.6,29.61,ESE,112,1.1,-999.0,99,-99.99,,,0.19,Acu-Link.com,2013-04-24 03:56:00,